Hlavní strana
METAR-TAF:

METAR-TAF

Letiště :

Balıkesir, Turecko

zeměpisná šířka: 39-37N, zeměpisná délka: 027-55E, výška: 101 m

Aktuální stav počasí

Zpráva byla vytvořena před 1 hodinou a 6 minutami, v 04:50 UTC
Severoseverovýchodní vítr 10 kt
Teplota 3°C
Vlhkost vzduchu 75%
Tlak 1039 hPa
Viditelnost 10 km a více
Polojasno ve výšce 2000 ft
Oblačno až skoro zataženo ve výšce 3500 ft

METAR: LTBF 210450Z 02010KT 9999 SCT020 BKN035 03/M01 Q1039 NOSIG

Čas: 08:56 (05:56 UTC)

Předpověď počasí

Zpráva byla vytvořena před 1 hodinou a 16 minutami, v 04:40 UTC
Předpověď platná od 21 v 06 UTC do 21 v 15 UTC
Severní vítr 15 kt
Viditelnost 10 km a více
Polojasno ve výšce 2000 ft
Oblačno až skoro zataženo ve výšce 3500 ft

TAF: LTBF 210440Z 2106/2115 01015KT 9999 SCT020 BKN035

Stav a předpovědi počasí z více než 4 000 letišť (zprávy METAR a TAF).

Červené a žluté tečky na mapě představují dostupné meteorologické stanice.

Když kurzor umístíte na tečku, zobrazí se název stanice.

Pak kliknutím zobrazíte stav a předpověď počasí.

Chcete-li změnit mapu, kliknutím na zelené tlačítko se znaménkem +mapu přiblížíte, kliknutím na zelené tlačítko se znaménkem – mapu oddálíte a kliknutím na zelené šipky přejdete na sousední mapy.


METAR-TAF: